Time,TemperatureF,DewpointF,PressureIn,WindDirection,WindDirectionDegrees,WindSpeedMPH,WindSpeedGustMPH,Humidity,HourlyPrecipIn,Conditions,Clouds,dailyrainin,SoftwareType,DateUTC
2013-06-14 00:04:00,64.8,59.1,26.96,North,-999,-999.0,-999.0,82,0.00,,,0.00,WSDL version 420,2013-06-14 04:04:00,
2013-06-14 00:09:00,64.6,59.1,26.96,North,-999,-999.0,-999.0,83,0.00,,,0.00,WSDL version 420,2013-06-14 04:09:00,
2013-06-14 00:14:00,64.6,59.1,26.96,North,-999,-999.0,-999.0,82,0.00,,,0.00,WSDL version 420,2013-06-14 04:14:00,
2013-06-14 00:19:00,64.6,59.5,26.96,North,-999,-999.0,-999.0,83,0.00,,,0.00,WSDL version 420,2013-06-14 04:19:00,
2013-06-14 00:24:00,64.6,59.4,26.96,North,-999,-999.0,-999.0,83,0.00,,,0.00,WSDL version 420,2013-06-14 04:24:00,
2013-06-14 00:29:00,64.7,59.8,26.96,North,-999,-999.0,-999.0,84,0.00,,,0.00,WSDL version 420,2013-06-14 04:29:00,
2013-06-14 00:34:00,64.6,59.8,26.96,North,-999,-999.0,-999.0,84,0.00,,,0.00,WSDL version 420,2013-06-14 04:34:00,
2013-06-14 00:39:00,64.6,59.7,26.96,North,-999,-999.0,-999.0,84,0.00,,,0.00,WSDL version 420,2013-06-14 04:39:00,
2013-06-14 00:44:00,64.7,59.9,26.96,North,-999,-999.0,-999.0,84,0.00,,,0.00,WSDL version 420,2013-06-14 04:44:00,
2013-06-14 00:49:00,64.6,60.0,26.96,North,-999,-999.0,-999.0,84,0.00,,,0.00,WSDL version 420,2013-06-14 04:49:00,
2013-06-14 00:54:00,64.5,59.7,26.96,North,-999,-999.0,-999.0,84,0.00,,,0.00,WSDL version 420,2013-06-14 04:54:00,
2013-06-14 00:59:00,64.4,59.6,26.96,North,-999,-999.0,-999.0,84,0.00,,,0.00,WSDL version 420,2013-06-14 04:59:00,
2013-06-14 01:04:00,64.3,59.5,26.96,North,-999,-999.0,-999.0,84,0.00,,,0.00,WSDL version 420,2013-06-14 05:04:00,
2013-06-14 01:09:00,64.2,59.4,26.96,North,-999,-999.0,-999.0,84,0.00,,,0.00,WSDL version 420,2013-06-14 05:09:00,
2013-06-14 01:14:00,64.1,59.4,26.96,North,-999,-999.0,-999.0,84,0.00,,,0.00,WSDL version 420,2013-06-14 05:14:00,
2013-06-14 01:19:00,63.9,59.2,26.96,North,-999,-999.0,-999.0,83,0.00,,,0.00,WSDL version 420,2013-06-14 05:19:00,
2013-06-14 01:24:00,63.9,59.1,26.96,North,-999,-999.0,-999.0,84,0.00,,,0.00,WSDL version 420,2013-06-14 05:24:00,
2013-06-14 01:29:00,63.7,59.2,26.96,North,-999,-999.0,-999.0,86,0.00,,,0.00,WSDL version 420,2013-06-14 05:29:00,
2013-06-14 01:34:00,63.7,59.3,26.96,North,-999,-999.0,-999.0,86,0.00,,,0.00,WSDL version 420,2013-06-14 05:34:00,
2013-06-14 01:39:00,63.5,59.1,26.96,North,-999,-999.0,-999.0,86,0.00,,,0.00,WSDL version 420,2013-06-14 05:39:00,
2013-06-14 01:44:00,63.4,59.0,26.96,North,-999,-999.0,-999.0,84,0.00,,,0.00,WSDL version 420,2013-06-14 05:44:00,
2013-06-14 01:49:00,63.3,58.9,26.96,North,-999,-999.0,-999.0,86,0.00,,,0.00,WSDL version 420,2013-06-14 05:49:00,
2013-06-14 01:54:00,63.3,58.9,26.96,North,-999,-999.0,-999.0,86,0.00,,,0.00,WSDL version 420,2013-06-14 05:54:00,
2013-06-14 01:59:00,63.1,58.7,26.96,North,-999,-999.0,-999.0,86,0.00,,,0.00,WSDL version 420,2013-06-14 05:59:00,
2013-06-14 02:04:00,62.8,57.5,26.96,North,-999,-999.0,-999.0,81,0.00,,,0.00,WSDL version 420,2013-06-14 06:04:00,
2013-06-14 02:09:00,62.4,56.3,26.96,North,-999,-999.0,-999.0,80,0.00,,,0.00,WSDL version 420,2013-06-14 06:09:00,
2013-06-14 02:14:00,62.1,55.7,26.96,North,-999,-999.0,-999.0,79,0.00,,,0.00,WSDL version 420,2013-06-14 06:14:00,
2013-06-14 02:19:00,61.7,54.3,26.96,North,-999,-999.0,-999.0,77,0.00,,,0.00,WSDL version 420,2013-06-14 06:19:00,
2013-06-14 02:24:00,61.4,54.2,26.96,North,-999,-999.0,-999.0,77,0.00,,,0.00,WSDL version 420,2013-06-14 06:24:00,
2013-06-14 02:29:00,61.2,54.2,26.96,North,-999,-999.0,-999.0,78,0.00,,,0.00,WSDL version 420,2013-06-14 06:29:00,
2013-06-14 02:34:00,60.8,53.7,26.96,North,-999,-999.0,-999.0,78,0.00,,,0.00,WSDL version 420,2013-06-14 06:34:00,
2013-06-14 02:39:00,60.5,53.7,26.96,North,-999,-999.0,-999.0,79,0.00,,,0.00,WSDL version 420,2013-06-14 06:39:00,
2013-06-14 02:44:00,60.3,53.5,26.96,North,-999,-999.0,-999.0,78,0.00,,,0.00,WSDL version 420,2013-06-14 06:44:00,
2013-06-14 02:49:00,60.1,53.3,26.96,North,-999,-999.0,-999.0,78,0.00,,,0.00,WSDL version 420,2013-06-14 06:49:00,
2013-06-14 02:54:00,59.8,53.0,26.96,North,-999,-999.0,-999.0,78,0.00,,,0.00,WSDL version 420,2013-06-14 06:54:00,
2013-06-14 02:59:00,59.6,52.9,26.96,North,-999,-999.0,-999.0,79,0.00,,,0.00,WSDL version 420,2013-06-14 06:59:00,
2013-06-14 03:04:00,59.3,52.8,26.96,North,-999,-999.0,-999.0,79,0.00,,,0.00,WSDL version 420,2013-06-14 07:04:00,
2013-06-14 03:09:00,59.1,52.6,26.99,North,-999,-999.0,-999.0,79,0.00,,,0.00,WSDL version 420,2013-06-14 07:09:00,
2013-06-14 03:14:00,58.9,52.5,26.99,North,-999,-999.0,-999.0,79,0.00,,,0.00,WSDL version 420,2013-06-14 07:14:00,
2013-06-14 03:19:00,58.6,52.1,26.99,North,-999,-999.0,-999.0,79,0.00,,,0.00,WSDL version 420,2013-06-14 07:19:00,
2013-06-14 03:24:00,58.2,51.8,26.96,North,-999,-999.0,-999.0,79,0.00,,,0.00,WSDL version 420,2013-06-14 07:24:00,
2013-06-14 03:29:00,58.1,51.9,26.96,North,-999,-999.0,-999.0,80,0.00,,,0.00,WSDL version 420,2013-06-14 07:29:00,
2013-06-14 03:34:00,57.9,51.8,26.96,North,-999,-999.0,-999.0,80,0.00,,,0.00,WSDL version 420,2013-06-14 07:34:00,
2013-06-14 03:39:00,57.8,51.7,26.96,North,-999,-999.0,-999.0,80,0.00,,,0.00,WSDL version 420,2013-06-14 07:39:00,
2013-06-14 03:44:00,57.7,51.6,26.96,North,-999,-999.0,-999.0,80,0.00,,,0.00,WSDL version 420,2013-06-14 07:44:00,
2013-06-14 03:49:00,57.5,51.4,26.96,North,-999,-999.0,-999.0,80,0.00,,,0.00,WSDL version 420,2013-06-14 07:49:00,
2013-06-14 03:54:00,57.4,51.3,26.96,North,-999,-999.0,-999.0,80,0.00,,,0.00,WSDL version 420,2013-06-14 07:54:00,
2013-06-14 03:59:00,57.2,51.1,26.96,North,-999,-999.0,-999.0,80,0.00,,,0.00,WSDL version 420,2013-06-14 07:59:00,
2013-06-14 04:04:00,57.0,51.3,26.96,North,-999,-999.0,-999.0,81,0.00,,,0.00,WSDL version 420,2013-06-14 08:04:00,
2013-06-14 04:09:00,56.8,51.1,26.96,North,-999,-999.0,-999.0,81,0.00,,,0.00,WSDL version 420,2013-06-14 08:09:00,
2013-06-14 04:14:00,56.8,51.1,26.96,North,-999,-999.0,-999.0,81,0.00,,,0.00,WSDL version 420,2013-06-14 08:14:00,
2013-06-14 04:19:00,56.7,51.2,26.96,North,-999,-999.0,-999.0,82,0.00,,,0.00,WSDL version 420,2013-06-14 08:19:00,
2013-06-14 04:24:00,56.6,51.1,26.96,North,-999,-999.0,-999.0,81,0.00,,,0.00,WSDL version 420,2013-06-14 08:24:00,
2013-06-14 04:29:00,56.5,50.9,26.96,North,-999,-999.0,-999.0,81,0.00,,,0.00,WSDL version 420,2013-06-14 08:29:00,
2013-06-14 04:34:00,56.3,50.7,26.96,North,-999,-999.0,-999.0,82,0.00,,,0.00,WSDL version 420,2013-06-14 08:34:00,
2013-06-14 04:39:00,56.2,50.8,26.99,North,-999,-999.0,-999.0,82,0.00,,,0.00,WSDL version 420,2013-06-14 08:39:00,
2013-06-14 04:44:00,56.1,50.7,26.99,North,-999,-999.0,-999.0,82,0.00,,,0.00,WSDL version 420,2013-06-14 08:44:00,
2013-06-14 04:49:00,55.9,50.8,26.99,North,-999,-999.0,-999.0,83,0.00,,,0.00,WSDL version 420,2013-06-14 08:49:00,
2013-06-14 04:54:00,55.9,51.0,26.96,North,-999,-999.0,-999.0,83,0.00,,,0.00,WSDL version 420,2013-06-14 08:54:00,
2013-06-14 04:59:00,55.9,51.0,26.96,North,-999,-999.0,-999.0,83,0.00,,,0.00,WSDL version 420,2013-06-14 08:59:00,
2013-06-14 05:04:00,55.9,50.9,26.96,North,-999,-999.0,-999.0,83,0.00,,,0.00,WSDL version 420,2013-06-14 09:04:00,
2013-06-14 05:09:00,55.9,51.1,26.99,North,-999,-999.0,-999.0,84,0.00,,,0.00,WSDL version 420,2013-06-14 09:09:00,
2013-06-14 05:14:00,55.8,51.1,26.99,North,-999,-999.0,-999.0,84,0.00,,,0.00,WSDL version 420,2013-06-14 09:14:00,
2013-06-14 05:19:00,55.8,51.1,26.99,North,-999,-999.0,-999.0,84,0.00,,,0.00,WSDL version 420,2013-06-14 09:19:00,
2013-06-14 05:24:00,55.8,51.1,26.96,North,-999,-999.0,-999.0,84,0.00,,,0.00,WSDL version 420,2013-06-14 09:24:00,
2013-06-14 05:29:00,55.8,51.4,26.96,North,-999,-999.0,-999.0,86,0.00,,,0.00,WSDL version 420,2013-06-14 09:29:00,
2013-06-14 05:34:00,55.9,51.9,26.96,North,-999,-999.0,-999.0,87,0.00,,,0.00,WSDL version 420,2013-06-14 09:34:00,
2013-06-14 05:39:00,55.9,52.0,26.99,North,-999,-999.0,-999.0,87,0.00,,,0.00,WSDL version 420,2013-06-14 09:39:00,
2013-06-14 05:44:00,56.0,52.3,26.99,North,-999,-999.0,-999.0,88,0.00,,,0.00,WSDL version 420,2013-06-14 09:44:00,
2013-06-14 05:49:00,56.2,52.7,26.99,North,-999,-999.0,-999.0,89,0.00,,,0.00,WSDL version 420,2013-06-14 09:49:00,
2013-06-14 05:54:00,56.4,53.2,26.99,North,-999,-999.0,-999.0,90,0.00,,,0.00,WSDL version 420,2013-06-14 09:54:00,
2013-06-14 05:59:00,56.6,53.5,26.99,North,-999,-999.0,-999.0,89,0.00,,,0.00,WSDL version 420,2013-06-14 09:59:00,
2013-06-14 06:04:00,56.8,53.9,26.99,North,-999,-999.0,-999.0,90,0.00,,,0.00,WSDL version 420,2013-06-14 10:04:00,
2013-06-14 06:09:00,56.8,53.9,26.99,North,-999,-999.0,-999.0,90,0.00,,,0.00,WSDL version 420,2013-06-14 10:09:00,
2013-06-14 06:14:00,56.8,53.7,26.99,North,-999,-999.0,-999.0,89,0.00,,,0.00,WSDL version 420,2013-06-14 10:14:00,
2013-06-14 06:19:00,56.8,53.6,26.99,North,-999,-999.0,-999.0,89,0.00,,,0.00,WSDL version 420,2013-06-14 10:19:00,
2013-06-14 06:24:00,57.0,53.7,26.99,North,-999,-999.0,-999.0,89,0.00,,,0.00,WSDL version 420,2013-06-14 10:24:00,
2013-06-14 06:29:00,57.2,54.0,26.99,North,-999,-999.0,-999.0,89,0.00,,,0.00,WSDL version 420,2013-06-14 10:29:00,
2013-06-14 06:34:00,57.5,53.9,26.99,North,-999,-999.0,-999.0,88,0.00,,,0.00,WSDL version 420,2013-06-14 10:34:00,
2013-06-14 06:39:00,57.7,54.0,27.02,North,-999,-999.0,-999.0,87,0.00,,,0.00,WSDL version 420,2013-06-14 10:39:00,
2013-06-14 06:44:00,57.9,54.0,27.02,North,-999,-999.0,-999.0,87,0.00,,,0.00,WSDL version 420,2013-06-14 10:44:00,
2013-06-14 06:49:00,58.0,53.8,27.02,North,-999,-999.0,-999.0,86,0.00,,,0.00,WSDL version 420,2013-06-14 10:49:00,
2013-06-14 06:54:00,58.2,53.6,26.99,North,-999,-999.0,-999.0,83,0.00,,,0.00,WSDL version 420,2013-06-14 10:54:00,
2013-06-14 06:59:00,58.5,53.4,26.99,North,-999,-999.0,-999.0,82,0.00,,,0.00,WSDL version 420,2013-06-14 10:59:00,
2013-06-14 07:04:00,58.8,53.1,26.99,North,-999,-999.0,-999.0,81,0.00,,,0.00,WSDL version 420,2013-06-14 11:04:00,
2013-06-14 07:09:00,58.9,53.0,26.99,North,-999,-999.0,-999.0,80,0.00,,,0.00,WSDL version 420,2013-06-14 11:09:00,
2013-06-14 07:14:00,59.1,52.7,26.99,North,-999,-999.0,-999.0,79,0.00,,,0.00,WSDL version 420,2013-06-14 11:14:00,
2013-06-14 07:19:00,59.2,52.6,26.99,North,-999,-999.0,-999.0,78,0.00,,,0.00,WSDL version 420,2013-06-14 11:19:00,
2013-06-14 07:24:00,59.3,52.3,26.99,North,-999,-999.0,-999.0,78,0.00,,,0.00,WSDL version 420,2013-06-14 11:24:00,
2013-06-14 07:29:00,59.2,52.4,26.99,North,-999,-999.0,-999.0,78,0.00,,,0.00,WSDL version 420,2013-06-14 11:29:00,
2013-06-14 07:34:00,59.5,52.8,26.99,North,-999,-999.0,-999.0,79,0.00,,,0.00,WSDL version 420,2013-06-14 11:34:00,
2013-06-14 07:39:00,59.4,52.4,26.99,North,-999,-999.0,-999.0,76,0.00,,,0.00,WSDL version 420,2013-06-14 11:39:00,
2013-06-14 07:44:00,59.7,52.3,26.99,North,-999,-999.0,-999.0,77,0.00,,,0.00,WSDL version 420,2013-06-14 11:44:00,
2013-06-14 07:49:00,59.7,52.5,26.99,North,-999,-999.0,-999.0,77,0.00,,,0.00,WSDL version 420,2013-06-14 11:49:00,
2013-06-14 07:54:00,59.8,52.3,27.02,North,-999,-999.0,-999.0,74,0.00,,,0.00,WSDL version 420,2013-06-14 11:54:00,
2013-06-14 07:59:00,60.1,51.5,27.02,North,-999,-999.0,-999.0,72,0.00,,,0.00,WSDL version 420,2013-06-14 11:59:00,
2013-06-14 08:04:00,60.4,51.7,27.02,North,-999,-999.0,-999.0,73,0.00,,,0.00,WSDL version 420,2013-06-14 12:04:00,
2013-06-14 08:09:00,60.6,51.8,27.02,North,-999,-999.0,-999.0,72,0.00,,,0.00,WSDL version 420,2013-06-14 12:09:00,
2013-06-14 08:14:00,60.9,51.3,27.02,North,-999,-999.0,-999.0,70,0.00,,,0.00,WSDL version 420,2013-06-14 12:14:00,
2013-06-14 08:19:00,61.1,51.3,27.02,North,-999,-999.0,-999.0,70,0.00,,,0.00,WSDL version 420,2013-06-14 12:19:00,
2013-06-14 08:24:00,61.4,51.3,26.99,North,-999,-999.0,-999.0,68,0.00,,,0.00,WSDL version 420,2013-06-14 12:24:00,
2013-06-14 08:29:00,62.1,51.4,26.99,North,-999,-999.0,-999.0,68,0.00,,,0.00,WSDL version 420,2013-06-14 12:29:00,
2013-06-14 08:34:00,63.7,52.9,26.99,North,-999,-999.0,-999.0,67,0.00,,,0.00,WSDL version 420,2013-06-14 12:34:00,
2013-06-14 08:39:00,65.9,53.7,26.99,North,-999,-999.0,-999.0,64,0.00,,,0.00,WSDL version 420,2013-06-14 12:39:00,
2013-06-14 08:44:00,68.4,54.9,26.99,North,-999,-999.0,-999.0,61,0.00,,,0.00,WSDL version 420,2013-06-14 12:44:00,
2013-06-14 08:49:00,69.6,51.9,26.99,North,-999,-999.0,-999.0,53,0.00,,,0.00,WSDL version 420,2013-06-14 12:49:00,
2013-06-14 08:54:00,70.5,51.3,26.99,North,-999,-999.0,-999.0,49,0.00,,,0.00,WSDL version 420,2013-06-14 12:54:00,
2013-06-14 08:59:00,71.9,51.7,26.99,North,-999,-999.0,-999.0,48,0.00,,,0.00,WSDL version 420,2013-06-14 12:59:00,
2013-06-14 09:04:00,72.3,50.4,26.99,North,-999,-999.0,-999.0,46,0.00,,,0.00,WSDL version 420,2013-06-14 13:04:00,
2013-06-14 09:09:00,72.7,50.2,26.99,North,-999,-999.0,-999.0,44,0.00,,,0.00,WSDL version 420,2013-06-14 13:09:00,
2013-06-14 09:14:00,73.5,50.8,26.99,North,-999,-999.0,-999.0,45,0.00,,,0.00,WSDL version 420,2013-06-14 13:14:00,
2013-06-14 09:19:00,73.2,49.0,26.99,North,-999,-999.0,-999.0,42,0.00,,,0.00,WSDL version 420,2013-06-14 13:19:00,
2013-06-14 09:24:00,74.4,50.6,27.02,North,-999,-999.0,-999.0,42,0.00,,,0.00,WSDL version 420,2013-06-14 13:24:00,
2013-06-14 09:29:00,74.8,50.6,27.02,North,-999,-999.0,-999.0,42,0.00,,,0.00,WSDL version 420,2013-06-14 13:29:00,
2013-06-14 09:34:00,74.3,49.6,27.02,North,-999,-999.0,-999.0,42,0.00,,,0.00,WSDL version 420,2013-06-14 13:34:00,
2013-06-14 09:39:00,73.4,48.7,27.02,North,-999,-999.0,-999.0,41,0.00,,,0.00,WSDL version 420,2013-06-14 13:39:00,
2013-06-14 09:44:00,73.3,49.2,27.02,North,-999,-999.0,-999.0,43,0.00,,,0.00,WSDL version 420,2013-06-14 13:44:00,
2013-06-14 09:49:00,73.3,48.7,27.02,North,-999,-999.0,-999.0,41,0.00,,,0.00,WSDL version 420,2013-06-14 13:49:00,
2013-06-14 09:54:00,73.7,49.1,27.02,North,-999,-999.0,-999.0,42,0.00,,,0.00,WSDL version 420,2013-06-14 13:54:00,
2013-06-14 09:59:00,74.5,49.9,27.02,North,-999,-999.0,-999.0,42,0.00,,,0.00,WSDL version 420,2013-06-14 13:59:00,
2013-06-14 10:04:00,75.1,49.8,27.02,North,-999,-999.0,-999.0,40,0.00,,,0.00,WSDL version 420,2013-06-14 14:04:00,
2013-06-14 10:09:00,75.3,48.7,27.02,North,-999,-999.0,-999.0,38,0.00,,,0.00,WSDL version 420,2013-06-14 14:09:00,
2013-06-14 10:14:00,75.7,48.7,27.02,North,-999,-999.0,-999.0,39,0.00,,,0.00,WSDL version 420,2013-06-14 14:14:00,
2013-06-14 10:19:00,76.2,49.6,27.02,North,-999,-999.0,-999.0,38,0.00,,,0.00,WSDL version 420,2013-06-14 14:19:00,
2013-06-14 10:24:00,75.6,47.7,27.02,North,-999,-999.0,-999.0,37,0.00,,,0.00,WSDL version 420,2013-06-14 14:24:00,
2013-06-14 10:29:00,75.2,48.4,27.02,North,-999,-999.0,-999.0,38,0.00,,,0.00,WSDL version 420,2013-06-14 14:29:00,
2013-06-14 10:34:00,75.1,47.0,27.02,North,-999,-999.0,-999.0,37,0.00,,,0.00,WSDL version 420,2013-06-14 14:34:00,
2013-06-14 10:39:00,75.5,46.8,27.02,North,-999,-999.0,-999.0,35,0.00,,,0.00,WSDL version 420,2013-06-14 14:39:00,
2013-06-14 10:44:00,75.4,46.5,27.02,North,-999,-999.0,-999.0,37,0.00,,,0.00,WSDL version 420,2013-06-14 14:44:00,
2013-06-14 10:49:00,76.3,48.3,27.02,North,-999,-999.0,-999.0,37,0.00,,,0.00,WSDL version 420,2013-06-14 14:49:00,
2013-06-14 10:54:00,77.3,48.1,27.05,North,-999,-999.0,-999.0,37,0.00,,,0.00,WSDL version 420,2013-06-14 14:54:00,
2013-06-14 10:59:00,78.4,48.8,27.05,North,-999,-999.0,-999.0,35,0.00,,,0.00,WSDL version 420,2013-06-14 14:59:00,
2013-06-14 11:04:00,79.2,49.7,27.05,North,-999,-999.0,-999.0,34,0.00,,,0.00,WSDL version 420,2013-06-14 15:04:00,
2013-06-14 11:09:00,79.0,48.6,27.05,North,-999,-999.0,-999.0,35,0.00,,,0.00,WSDL version 420,2013-06-14 15:09:00,
2013-06-14 11:14:00,79.8,49.0,27.05,North,-999,-999.0,-999.0,35,0.00,,,0.00,WSDL version 420,2013-06-14 15:14:00,
2013-06-14 11:19:00,78.8,46.4,27.05,North,-999,-999.0,-999.0,31,0.00,,,0.00,WSDL version 420,2013-06-14 15:19:00,
2013-06-14 11:24:00,78.4,47.0,27.05,North,-999,-999.0,-999.0,34,0.00,,,0.00,WSDL version 420,2013-06-14 15:24:00,
2013-06-14 11:29:00,79.6,48.6,27.05,North,-999,-999.0,-999.0,34,0.00,,,0.00,WSDL version 420,2013-06-14 15:29:00,
2013-06-14 11:34:00,80.4,48.8,27.05,North,-999,-999.0,-999.0,34,0.00,,,0.00,WSDL version 420,2013-06-14 15:34:00,
2013-06-14 11:39:00,80.5,48.8,27.05,North,-999,-999.0,-999.0,32,0.00,,,0.00,WSDL version 420,2013-06-14 15:39:00,
2013-06-14 11:44:00,79.7,46.9,27.05,North,-999,-999.0,-999.0,32,0.00,,,0.00,WSDL version 420,2013-06-14 15:44:00,
2013-06-14 11:49:00,79.3,47.0,27.05,North,-999,-999.0,-999.0,32,0.00,,,0.00,WSDL version 420,2013-06-14 15:49:00,
2013-06-14 11:54:00,80.0,48.4,27.05,North,-999,-999.0,-999.0,33,0.00,,,0.00,WSDL version 420,2013-06-14 15:54:00,
2013-06-14 11:59:00,80.3,48.7,27.05,North,-999,-999.0,-999.0,33,0.00,,,0.00,WSDL version 420,2013-06-14 15:59:00,
2013-06-14 12:04:00,80.8,48.9,27.05,North,-999,-999.0,-999.0,31,0.00,,,0.00,WSDL version 420,2013-06-14 16:04:00,
2013-06-14 12:09:00,80.8,48.4,27.05,North,-999,-999.0,-999.0,33,0.00,,,0.00,WSDL version 420,2013-06-14 16:09:00,
2013-06-14 12:14:00,81.6,50.9,27.05,North,-999,-999.0,-999.0,34,0.00,,,0.00,WSDL version 420,2013-06-14 16:14:00,
2013-06-14 12:19:00,81.4,49.8,27.05,North,-999,-999.0,-999.0,34,0.00,,,0.00,WSDL version 420,2013-06-14 16:19:00,
2013-06-14 12:24:00,80.8,47.2,27.05,North,-999,-999.0,-999.0,31,0.00,,,0.00,WSDL version 420,2013-06-14 16:24:00,
2013-06-14 12:29:00,80.4,47.7,27.05,North,-999,-999.0,-999.0,30,0.00,,,0.00,WSDL version 420,2013-06-14 16:29:00,
2013-06-14 12:34:00,80.2,47.5,27.05,North,-999,-999.0,-999.0,32,0.00,,,0.00,WSDL version 420,2013-06-14 16:34:00,
2013-06-14 12:39:00,81.2,50.0,27.05,North,-999,-999.0,-999.0,33,0.00,,,0.00,WSDL version 420,2013-06-14 16:39:00,
2013-06-14 12:44:00,81.0,49.5,27.05,North,-999,-999.0,-999.0,35,0.00,,,0.00,WSDL version 420,2013-06-14 16:44:00,
2013-06-14 12:49:00,81.2,49.2,27.05,North,-999,-999.0,-999.0,34,0.00,,,0.00,WSDL version 420,2013-06-14 16:49:00,
2013-06-14 12:54:00,81.3,48.8,27.08,North,-999,-999.0,-999.0,32,0.00,,,0.00,WSDL version 420,2013-06-14 16:54:00,
2013-06-14 12:59:00,81.1,48.5,27.08,North,-999,-999.0,-999.0,33,0.00,,,0.00,WSDL version 420,2013-06-14 16:59:00,
2013-06-14 13:04:00,80.8,47.8,27.08,North,-999,-999.0,-999.0,31,0.00,,,0.00,WSDL version 420,2013-06-14 17:04:00,
2013-06-14 13:09:00,80.8,47.6,27.08,North,-999,-999.0,-999.0,32,0.00,,,0.00,WSDL version 420,2013-06-14 17:09:00,
2013-06-14 13:14:00,80.7,48.5,27.08,North,-999,-999.0,-999.0,34,0.00,,,0.00,WSDL version 420,2013-06-14 17:14:00,
2013-06-14 13:19:00,81.4,49.8,27.08,North,-999,-999.0,-999.0,32,0.00,,,0.00,WSDL version 420,2013-06-14 17:19:00,
2013-06-14 13:24:00,81.4,48.3,27.08,North,-999,-999.0,-999.0,32,0.00,,,0.00,WSDL version 420,2013-06-14 17:24:00,
2013-06-14 13:29:00,81.6,48.4,27.08,North,-999,-999.0,-999.0,31,0.00,,,0.00,WSDL version 420,2013-06-14 17:29:00,
2013-06-14 13:34:00,81.7,48.6,27.08,North,-999,-999.0,-999.0,34,0.00,,,0.00,WSDL version 420,2013-06-14 17:34:00,
2013-06-14 13:39:00,82.2,48.2,27.08,North,-999,-999.0,-999.0,30,0.00,,,0.00,WSDL version 420,2013-06-14 17:39:00,
2013-06-14 13:44:00,82.1,48.0,27.08,North,-999,-999.0,-999.0,30,0.00,,,0.00,WSDL version 420,2013-06-14 17:44:00,
2013-06-14 13:49:00,83.0,49.4,27.08,North,-999,-999.0,-999.0,31,0.00,,,0.00,WSDL version 420,2013-06-14 17:49:00,
2013-06-14 13:54:00,82.7,48.3,27.08,North,-999,-999.0,-999.0,30,0.00,,,0.00,WSDL version 420,2013-06-14 17:54:00,
2013-06-14 13:59:00,82.5,48.7,27.08,North,-999,-999.0,-999.0,30,0.00,,,0.00,WSDL version 420,2013-06-14 17:59:00,
2013-06-14 14:04:00,82.9,49.4,27.08,North,-999,-999.0,-999.0,30,0.00,,,0.00,WSDL version 420,2013-06-14 18:04:00,
2013-06-14 14:09:00,82.2,48.4,27.08,North,-999,-999.0,-999.0,31,0.00,,,0.00,WSDL version 420,2013-06-14 18:09:00,
2013-06-14 14:13:00,60.0,58.0,29.92,WNW,292,10.0,18.0,98,0.27,,,3.29,WSDL version 000,2013-06-14 18:13:00,
2013-06-14 14:14:00,82.2,48.4,27.08,North,-999,-999.0,-999.0,30,0.00,,,0.00,WSDL version 420,2013-06-14 18:14:00,
2013-06-14 14:19:00,82.5,48.1,27.08,North,-999,-999.0,-999.0,30,0.00,,,0.00,WSDL version 420,2013-06-14 18:19:00,
2013-06-14 14:22:00,60.0,58.0,29.92,WNW,292,10.0,18.0,98,0.27,,,3.29,WSDL version 000,2013-06-14 18:22:00,
2013-06-14 14:28:00,60.0,58.0,29.92,WNW,292,10.0,18.0,98,0.27,,,3.29,WSDL version 000,2013-06-14 18:28:00,
2013-06-14 14:33:00,76.9,43.0,27.08,North,-999,-999.0,-999.0,30,0.00,,,0.00,WSDL version 420,2013-06-14 18:33:00,
2013-06-14 14:38:00,77.9,45.3,27.08,North,-999,-999.0,-999.0,31,0.00,,,0.00,WSDL version 420,2013-06-14 18:38:00,
2013-06-14 14:46:00,79.1,46.4,27.08,North,-999,-999.0,-999.0,32,0.00,,,0.00,WSDL version 420,2013-06-14 18:46:00,
2013-06-14 14:51:00,79.9,47.4,27.08,North,-999,-999.0,-999.0,31,0.00,,,0.00,WSDL version 420,2013-06-14 18:51:00,
2013-06-14 14:56:00,78.9,45.5,27.08,North,-999,-999.0,-999.0,31,0.00,,,0.00,WSDL version 420,2013-06-14 18:56:00,
2013-06-14 15:01:00,79.2,46.0,27.08,North,-999,-999.0,-999.0,31,0.00,,,0.00,WSDL version 420,2013-06-14 19:01:00,
2013-06-14 15:06:00,80.2,46.7,27.08,North,-999,-999.0,-999.0,31,0.00,,,0.00,WSDL version 420,2013-06-14 19:06:00,
2013-06-14 15:11:00,80.0,46.6,27.08,North,-999,-999.0,-999.0,32,0.00,,,0.00,WSDL version 420,2013-06-14 19:11:00,
2013-06-14 15:16:00,79.5,45.7,27.08,North,-999,-999.0,-999.0,30,0.00,,,0.00,WSDL version 420,2013-06-14 19:16:00,
2013-06-14 15:21:00,79.6,46.6,27.08,North,-999,-999.0,-999.0,32,0.00,,,0.00,WSDL version 420,2013-06-14 19:21:00,
2013-06-14 15:26:00,80.1,47.3,27.08,North,-999,-999.0,-999.0,32,0.00,,,0.00,WSDL version 420,2013-06-14 19:26:00,
2013-06-14 15:31:00,80.3,46.9,27.08,North,-999,-999.0,-999.0,30,0.00,,,0.00,WSDL version 420,2013-06-14 19:31:00,
2013-06-14 15:36:00,80.0,47.1,27.08,North,-999,-999.0,-999.0,31,0.00,,,0.00,WSDL version 420,2013-06-14 19:36:00,
2013-06-14 15:41:00,80.6,47.1,27.08,North,-999,-999.0,-999.0,30,0.00,,,0.00,WSDL version 420,2013-06-14 19:41:00,
2013-06-14 15:46:00,80.9,45.9,27.08,North,-999,-999.0,-999.0,29,0.00,,,0.00,WSDL version 420,2013-06-14 19:46:00,
2013-06-14 15:51:00,80.5,46.0,27.08,North,-999,-999.0,-999.0,30,0.00,,,0.00,WSDL version 420,2013-06-14 19:51:00,
2013-06-14 15:56:00,80.7,46.2,27.08,North,-999,-999.0,-999.0,29,0.00,,,0.00,WSDL version 420,2013-06-14 19:56:00,
2013-06-14 16:01:00,81.0,46.0,27.08,North,-999,-999.0,-999.0,29,0.00,,,0.00,WSDL version 420,2013-06-14 20:01:00,
2013-06-14 16:06:00,80.2,44.7,27.08,North,-999,-999.0,-999.0,28,0.00,,,0.00,WSDL version 420,2013-06-14 20:06:00,
2013-06-14 16:11:00,80.8,45.2,27.08,North,-999,-999.0,-999.0,29,0.00,,,0.00,WSDL version 420,2013-06-14 20:11:00,
2013-06-14 16:16:00,81.1,45.7,27.08,North,-999,-999.0,-999.0,28,0.00,,,0.00,WSDL version 420,2013-06-14 20:16:00,
2013-06-14 16:21:00,80.6,45.2,27.08,North,-999,-999.0,-999.0,29,0.00,,,0.00,WSDL version 420,2013-06-14 20:21:00,
2013-06-14 16:26:00,80.1,44.8,27.08,North,-999,-999.0,-999.0,29,0.00,,,0.00,WSDL version 420,2013-06-14 20:26:00,
2013-06-14 16:31:00,79.7,45.8,27.08,North,-999,-999.0,-999.0,30,0.00,,,0.00,WSDL version 420,2013-06-14 20:31:00,
2013-06-14 16:36:00,80.5,45.5,27.08,North,-999,-999.0,-999.0,29,0.00,,,0.00,WSDL version 420,2013-06-14 20:36:00,
2013-06-14 16:41:00,80.8,45.1,27.08,North,-999,-999.0,-999.0,27,0.00,,,0.00,WSDL version 420,2013-06-14 20:41:00,
2013-06-14 16:46:00,80.5,43.6,27.08,North,-999,-999.0,-999.0,27,0.00,,,0.00,WSDL version 420,2013-06-14 20:46:00,
2013-06-14 16:51:00,80.0,44.1,27.08,North,-999,-999.0,-999.0,29,0.00,,,0.00,WSDL version 420,2013-06-14 20:51:00,
2013-06-14 16:56:00,79.7,43.8,27.08,North,-999,-999.0,-999.0,29,0.00,,,0.00,WSDL version 420,2013-06-14 20:56:00,
2013-06-14 17:01:00,79.5,44.5,27.08,North,-999,-999.0,-999.0,29,0.00,,,0.00,WSDL version 420,2013-06-14 21:01:00,
2013-06-14 17:06:00,79.4,45.0,27.08,North,-999,-999.0,-999.0,29,0.00,,,0.00,WSDL version 420,2013-06-14 21:06:00,
2013-06-14 17:11:00,79.7,44.7,27.08,North,-999,-999.0,-999.0,29,0.00,,,0.00,WSDL version 420,2013-06-14 21:11:00,
2013-06-14 17:16:00,79.9,43.9,27.08,North,-999,-999.0,-999.0,27,0.00,,,0.00,WSDL version 420,2013-06-14 21:16:00,
2013-06-14 17:21:00,79.9,45.0,27.08,North,-999,-999.0,-999.0,29,0.00,,,0.00,WSDL version 420,2013-06-14 21:21:00,
2013-06-14 17:26:00,79.0,44.6,27.08,North,-999,-999.0,-999.0,29,0.00,,,0.00,WSDL version 420,2013-06-14 21:26:00,
2013-06-14 17:31:00,78.6,43.4,27.08,North,-999,-999.0,-999.0,30,0.00,,,0.00,WSDL version 420,2013-06-14 21:31:00,
2013-06-14 17:36:00,79.7,46.7,27.08,North,-999,-999.0,-999.0,30,0.00,,,0.00,WSDL version 420,2013-06-14 21:36:00,
2013-06-14 17:46:00,75.8,42.6,27.08,North,-999,-999.0,-999.0,32,0.00,,,0.00,WSDL version 420,2013-06-14 21:46:00,
2013-06-14 17:51:00,74.3,42.5,27.08,North,-999,-999.0,-999.0,33,0.00,,,0.00,WSDL version 420,2013-06-14 21:51:00,
2013-06-14 17:56:00,72.9,42.3,27.08,North,-999,-999.0,-999.0,33,0.00,,,0.00,WSDL version 420,2013-06-14 21:56:00,
2013-06-14 18:01:00,72.0,42.2,27.08,North,-999,-999.0,-999.0,34,0.00,,,0.00,WSDL version 420,2013-06-14 22:01:00,
2013-06-14 18:06:00,71.1,43.5,27.08,North,-999,-999.0,-999.0,36,0.00,,,0.00,WSDL version 420,2013-06-14 22:06:00,
2013-06-14 18:11:00,70.7,42.3,27.08,North,-999,-999.0,-999.0,38,0.00,,,0.00,WSDL version 420,2013-06-14 22:11:00,
2013-06-14 18:16:00,69.9,41.9,27.08,North,-999,-999.0,-999.0,36,0.00,,,0.00,WSDL version 420,2013-06-14 22:16:00,
2013-06-14 18:21:00,69.3,42.9,27.08,North,-999,-999.0,-999.0,39,0.00,,,0.00,WSDL version 420,2013-06-14 22:21:00,
2013-06-14 18:26:00,68.8,43.0,27.08,North,-999,-999.0,-999.0,39,0.00,,,0.00,WSDL version 420,2013-06-14 22:26:00,
2013-06-14 18:31:00,68.2,43.6,27.08,North,-999,-999.0,-999.0,42,0.00,,,0.00,WSDL version 420,2013-06-14 22:31:00,
2013-06-14 18:36:00,67.6,44.1,27.08,North,-999,-999.0,-999.0,43,0.00,,,0.00,WSDL version 420,2013-06-14 22:36:00,
2013-06-14 18:41:00,67.3,43.3,27.08,North,-999,-999.0,-999.0,42,0.00,,,0.00,WSDL version 420,2013-06-14 22:41:00,
2013-06-14 18:46:00,67.0,43.3,27.08,North,-999,-999.0,-999.0,43,0.00,,,0.00,WSDL version 420,2013-06-14 22:46:00,
2013-06-14 18:51:00,68.5,45.1,27.08,North,-999,-999.0,-999.0,43,0.00,,,0.00,WSDL version 420,2013-06-14 22:51:00,
2013-06-14 18:56:00,70.0,46.3,27.08,North,-999,-999.0,-999.0,43,0.00,,,0.00,WSDL version 420,2013-06-14 22:56:00,
2013-06-14 19:01:00,69.8,46.6,27.08,North,-999,-999.0,-999.0,44,0.00,,,0.00,WSDL version 420,2013-06-14 23:01:00,
2013-06-14 19:06:00,69.7,46.7,27.08,North,-999,-999.0,-999.0,45,0.00,,,0.00,WSDL version 420,2013-06-14 23:06:00,
2013-06-14 19:11:00,69.4,47.6,27.08,North,-999,-999.0,-999.0,46,0.00,,,0.00,WSDL version 420,2013-06-14 23:11:00,
2013-06-14 19:16:00,69.1,47.6,27.08,North,-999,-999.0,-999.0,46,0.00,,,0.00,WSDL version 420,2013-06-14 23:16:00,
2013-06-14 19:21:00,68.9,48.1,27.08,North,-999,-999.0,-999.0,48,0.00,,,0.00,WSDL version 420,2013-06-14 23:21:00,
2013-06-14 19:26:00,68.7,47.7,27.08,North,-999,-999.0,-999.0,48,0.00,,,0.00,WSDL version 420,2013-06-14 23:26:00,
2013-06-14 19:31:00,68.5,48.2,27.08,North,-999,-999.0,-999.0,47,0.00,,,0.00,WSDL version 420,2013-06-14 23:31:00,
2013-06-14 19:36:00,68.4,47.5,27.08,North,-999,-999.0,-999.0,48,0.00,,,0.00,WSDL version 420,2013-06-14 23:36:00,
2013-06-14 19:41:00,68.3,48.8,27.08,North,-999,-999.0,-999.0,50,0.00,,,0.00,WSDL version 420,2013-06-14 23:41:00,
2013-06-14 19:46:00,68.0,48.4,27.08,North,-999,-999.0,-999.0,49,0.00,,,0.00,WSDL version 420,2013-06-14 23:46:00,
2013-06-14 19:51:00,67.8,48.2,27.08,North,-999,-999.0,-999.0,50,0.00,,,0.00,WSDL version 420,2013-06-14 23:51:00,
2013-06-14 19:56:00,67.5,48.7,27.08,North,-999,-999.0,-999.0,51,0.00,,,0.00,WSDL version 420,2013-06-14 23:56:00,
2013-06-14 20:01:00,67.2,48.6,27.08,North,-999,-999.0,-999.0,52,0.00,,,0.00,WSDL version 420,2013-06-15 00:01:00,
2013-06-14 20:06:00,67.0,48.3,27.08,North,-999,-999.0,-999.0,51,0.00,,,0.00,WSDL version 420,2013-06-15 00:06:00,
2013-06-14 20:11:00,66.7,48.4,27.11,North,-999,-999.0,-999.0,52,0.00,,,0.00,WSDL version 420,2013-06-15 00:11:00,
2013-06-14 20:16:00,66.4,48.5,27.11,North,-999,-999.0,-999.0,52,0.00,,,0.00,WSDL version 420,2013-06-15 00:16:00,
2013-06-14 20:21:00,66.1,48.4,27.11,North,-999,-999.0,-999.0,53,0.00,,,0.00,WSDL version 420,2013-06-15 00:21:00,
2013-06-14 20:26:00,65.8,48.2,27.11,North,-999,-999.0,-999.0,53,0.00,,,0.00,WSDL version 420,2013-06-15 00:26:00,
2013-06-14 20:31:00,65.5,48.1,27.11,North,-999,-999.0,-999.0,54,0.00,,,0.00,WSDL version 420,2013-06-15 00:31:00,
2013-06-14 20:36:00,65.2,48.4,27.11,North,-999,-999.0,-999.0,55,0.00,,,0.00,WSDL version 420,2013-06-15 00:36:00,
2013-06-14 20:41:00,65.0,48.5,27.11,North,-999,-999.0,-999.0,56,0.00,,,0.00,WSDL version 420,2013-06-15 00:41:00,
2013-06-14 20:46:00,64.6,48.5,27.11,North,-999,-999.0,-999.0,56,0.00,,,0.00,WSDL version 420,2013-06-15 00:46:00,
2013-06-14 20:51:00,64.3,48.6,27.11,North,-999,-999.0,-999.0,57,0.00,,,0.00,WSDL version 420,2013-06-15 00:51:00,
2013-06-14 20:56:00,63.9,48.4,27.11,North,-999,-999.0,-999.0,57,0.00,,,0.00,WSDL version 420,2013-06-15 00:56:00,
2013-06-14 21:01:00,63.6,48.1,27.11,North,-999,-999.0,-999.0,57,0.00,,,0.00,WSDL version 420,2013-06-15 01:01:00,
2013-06-14 21:06:00,63.2,47.2,27.11,North,-999,-999.0,-999.0,56,0.00,,,0.00,WSDL version 420,2013-06-15 01:06:00,
2013-06-14 21:11:00,63.0,47.3,27.11,North,-999,-999.0,-999.0,56,0.00,,,0.00,WSDL version 420,2013-06-15 01:11:00,
2013-06-14 21:16:00,62.9,47.4,27.11,North,-999,-999.0,-999.0,56,0.00,,,0.00,WSDL version 420,2013-06-15 01:16:00,
2013-06-14 21:21:00,62.6,47.5,27.11,North,-999,-999.0,-999.0,58,0.00,,,0.00,WSDL version 420,2013-06-15 01:21:00,
2013-06-14 21:26:00,62.2,47.8,27.11,North,-999,-999.0,-999.0,60,0.00,,,0.00,WSDL version 420,2013-06-15 01:26:00,
2013-06-14 21:31:00,61.9,47.9,27.11,North,-999,-999.0,-999.0,60,0.00,,,0.00,WSDL version 420,2013-06-15 01:31:00,
2013-06-14 21:36:00,61.8,48.2,27.11,North,-999,-999.0,-999.0,61,0.00,,,0.00,WSDL version 420,2013-06-15 01:36:00,
2013-06-14 21:41:00,61.6,48.1,27.11,North,-999,-999.0,-999.0,62,0.00,,,0.00,WSDL version 420,2013-06-15 01:41:00,
2013-06-14 21:46:00,61.3,48.2,27.11,North,-999,-999.0,-999.0,62,0.00,,,0.00,WSDL version 420,2013-06-15 01:46:00,
2013-06-14 21:51:00,61.3,48.2,27.11,North,-999,-999.0,-999.0,62,0.00,,,0.00,WSDL version 420,2013-06-15 01:51:00,
2013-06-14 21:56:00,61.0,48.2,27.11,North,-999,-999.0,-999.0,63,0.00,,,0.00,WSDL version 420,2013-06-15 01:56:00,
2013-06-14 22:01:00,60.8,48.3,27.11,North,-999,-999.0,-999.0,63,0.00,,,0.00,WSDL version 420,2013-06-15 02:01:00,
2013-06-14 22:06:00,60.6,48.3,27.11,North,-999,-999.0,-999.0,65,0.00,,,0.00,WSDL version 420,2013-06-15 02:06:00,
2013-06-14 22:11:00,60.5,48.3,27.14,North,-999,-999.0,-999.0,64,0.00,,,0.00,WSDL version 420,2013-06-15 02:11:00,
2013-06-14 22:16:00,60.3,48.4,27.14,North,-999,-999.0,-999.0,65,0.00,,,0.00,WSDL version 420,2013-06-15 02:16:00,
2013-06-14 22:21:00,60.1,48.3,27.14,North,-999,-999.0,-999.0,65,0.00,,,0.00,WSDL version 420,2013-06-15 02:21:00,
2013-06-14 22:26:00,60.0,48.2,27.14,North,-999,-999.0,-999.0,65,0.00,,,0.00,WSDL version 420,2013-06-15 02:26:00,
2013-06-14 22:31:00,59.8,48.4,27.14,North,-999,-999.0,-999.0,66,0.00,,,0.00,WSDL version 420,2013-06-15 02:31:00,
2013-06-14 22:36:00,59.7,48.4,27.14,North,-999,-999.0,-999.0,66,0.00,,,0.00,WSDL version 420,2013-06-15 02:36:00,
2013-06-14 22:41:00,59.5,48.2,27.14,North,-999,-999.0,-999.0,66,0.00,,,0.00,WSDL version 420,2013-06-15 02:41:00,
2013-06-14 22:46:00,59.4,48.2,27.14,North,-999,-999.0,-999.0,67,0.00,,,0.00,WSDL version 420,2013-06-15 02:46:00,
2013-06-14 22:51:00,59.4,48.4,27.14,North,-999,-999.0,-999.0,67,0.00,,,0.00,WSDL version 420,2013-06-15 02:51:00,
2013-06-14 22:56:00,59.2,48.2,27.14,North,-999,-999.0,-999.0,67,0.00,,,0.00,WSDL version 420,2013-06-15 02:56:00,
2013-06-14 23:01:00,58.9,48.1,27.14,North,-999,-999.0,-999.0,67,0.00,,,0.00,WSDL version 420,2013-06-15 03:01:00,
2013-06-14 23:06:00,58.8,48.2,27.14,North,-999,-999.0,-999.0,68,0.00,,,0.00,WSDL version 420,2013-06-15 03:06:00,
2013-06-14 23:11:00,58.8,48.3,27.14,North,-999,-999.0,-999.0,68,0.00,,,0.00,WSDL version 420,2013-06-15 03:11:00,
2013-06-14 23:16:00,58.6,48.3,27.14,North,-999,-999.0,-999.0,69,0.00,,,0.00,WSDL version 420,2013-06-15 03:16:00,
2013-06-14 23:21:00,58.5,48.3,27.14,North,-999,-999.0,-999.0,69,0.00,,,0.00,WSDL version 420,2013-06-15 03:21:00,
2013-06-14 23:26:00,58.5,48.4,27.14,North,-999,-999.0,-999.0,70,0.00,,,0.00,WSDL version 420,2013-06-15 03:26:00,
2013-06-14 23:31:00,58.4,48.7,27.14,North,-999,-999.0,-999.0,70,0.00,,,0.00,WSDL version 420,2013-06-15 03:31:00,
2013-06-14 23:36:00,58.2,48.5,27.14,North,-999,-999.0,-999.0,70,0.00,,,0.00,WSDL version 420,2013-06-15 03:36:00,
2013-06-14 23:41:00,58.0,48.3,27.14,North,-999,-999.0,-999.0,70,0.00,,,0.00,WSDL version 420,2013-06-15 03:41:00,
2013-06-14 23:46:00,57.9,48.3,27.14,North,-999,-999.0,-999.0,71,0.00,,,0.00,WSDL version 420,2013-06-15 03:46:00,
2013-06-14 23:51:00,57.9,48.6,27.14,North,-999,-999.0,-999.0,71,0.00,,,0.00,WSDL version 420,2013-06-15 03:51:00,
2013-06-14 23:56:00,57.8,48.5,27.17,North,-999,-999.0,-999.0,71,0.00,,,0.00,WSDL version 420,2013-06-15 03:56:00,